Sea Link 3 — SVA6912 — position and weather

sailwx.info

Track history (hours):
 
Tides and Currents Weather Stations Pressure Air Temp Water Temp Dewpoint Dewpoint Depression Visibility Wind Speed Wind Dir Waves Ship Positions

Sea Link 3

Last reported at 2017-Sep-18 09:15 UTC. Time now 2017-Sep-19 22:43 UTC.
Position N 37°02' E 025°05'.

Length 13 m.

Type: Pleasure craft. MMSI: 239934200.

Date/timePositionNaut miles runAvg speedWind from/ knotsBaromVisibWave heightAir tempDewpointWater temp
2017-Sep-18 09:15N 37°02' E 025°05'0 2.0
2017-Sep-18 09:00N 37°02' E 025°05'0 0.0
2017-Sep-18 08:30N 37°02' E 025°05'9 5.0
2017-Sep-18 06:41N 37°08' E 025°14'1 0.0
2017-Sep-17 12:33N 37°09' E 025°14'1 0.7
2017-Sep-17 11:42N 37°08' E 025°14'1 2.8
2017-Sep-17 11:29N 37°09' E 025°14'0 0.0
2017-Sep-17 10:59N 37°09' E 025°14'0 0.0
2017-Sep-17 10:26N 37°09' E 025°14'0 0.3
2017-Sep-17 10:00N 37°09' E 025°14'1425.0
2017-Sep-17 09:27N 37°22' E 025°19'3 6.3
2017-Sep-17 08:55N 37°25' E 025°20'0 0.0
2017-Sep-17 08:28N 37°25' E 025°20'0 0.0
2017-Sep-16 19:25N 37°25' E 025°20'0 0.0
2017-Sep-16 18:52N 37°25' E 025°20'0 0.0
2017-Sep-16 18:28N 37°25' E 025°20'0 0.0
2017-Sep-16 17:58N 37°25' E 025°20'0 0.0
2017-Sep-16 17:22N 37°25' E 025°20'0 0.0
2017-Sep-16 16:55N 37°25' E 025°20'0 0.0
2017-Sep-16 16:28N 37°25' E 025°20'0 0.0
2017-Sep-16 15:55N 37°25' E 025°20'0 0.0
2017-Sep-16 15:28N 37°25' E 025°20'0 0.0
2017-Sep-16 14:58N 37°25' E 025°20'0 0.0
2017-Sep-16 14:28N 37°25' E 025°20'0 0.0
2017-Sep-16 13:58N 37°25' E 025°20'0 0.0
2017-Sep-16 13:28N 37°25' E 025°20'0 0.0
2017-Sep-16 12:59N 37°25' E 025°19'5 5.8
2017-Sep-16 12:11N 37°23' E 025°14'0 0.0
2017-Sep-16 11:56N 37°23' E 025°14'1 2.3
2017-Sep-16 11:30N 37°23' E 025°15'1 2.2
2017-Sep-16 10:51N 37°24' E 025°16'0 0.1
2017-Sep-16 10:12N 37°24' E 025°16'2 0.9
2017-Sep-16 07:54N 37°24' E 025°13'13 0.7
2017-Sep-15 13:38N 37°23' E 024°57'429.3
2017-Sep-15 13:30N 37°22' E 024°53'10 2.9
2017-Sep-15 10:11N 37°30' E 024°47'5016.2
2017-Sep-15 07:05N 37°47' E 023°47'328.6
2017-Sep-15 07:00N 37°49' E 023°45'3 5.7
2017-Sep-15 06:29N 37°52' E 023°45'0 0.0
2017-Sep-15 05:59N 37°52' E 023°45'0 0.0
2017-Sep-15 05:17N 37°52' E 023°45'0 0.0
2017-Sep-15 04:59N 37°52' E 023°45'0 0.0
2017-Sep-15 04:29N 37°52' E 023°45'0 0.0
2017-Sep-15 03:53N 37°52' E 023°45'0 0.0
2017-Sep-15 03:23N 37°52' E 023°45'0 0.0
2017-Sep-15 02:59N 37°52' E 023°45'0 0.0
2017-Sep-15 02:29N 37°52' E 023°45'0 0.0
2017-Sep-15 01:59N 37°52' E 023°45'0 0.0
2017-Sep-15 01:29N 37°52' E 023°45'0 0.0
2017-Sep-15 00:59N 37°52' E 023°45'0 0.0
2017-Sep-15 00:29N 37°52' E 023°45'0 0.0
2017-Sep-14 23:53N 37°52' E 023°45'0 0.0
2017-Sep-14 23:29N 37°52' E 023°45'0 0.0
2017-Sep-14 22:59N 37°52' E 023°45'0 0.0
2017-Sep-14 22:29N 37°52' E 023°45'0 0.0
2017-Sep-14 21:53N 37°52' E 023°45'0 0.0
2017-Sep-14 21:29N 37°52' E 023°45'0 0.0
2017-Sep-14 20:59N 37°52' E 023°45'0 0.0
2017-Sep-14 20:29N 37°52' E 023°45'0 0.0
2017-Sep-14 19:59N 37°52' E 023°45'0 0.0
2017-Sep-14 19:11N 37°52' E 023°45'0 0.0
2017-Sep-14 18:53N 37°52' E 023°45'0 0.0
2017-Sep-14 18:26N 37°52' E 023°45'0 0.0
2017-Sep-14 17:47N 37°52' E 023°45'0 0.0
2017-Sep-14 17:23N 37°52' E 023°45'0 0.0
2017-Sep-14 16:59N 37°52' E 023°45'0 0.0
2017-Sep-14 16:23N 37°52' E 023°45'0 0.0
2017-Sep-14 15:56N 37°52' E 023°45'0 0.0
2017-Sep-14 15:29N 37°52' E 023°45'0 0.0
2017-Sep-14 14:59N 37°52' E 023°45'0 0.0
2017-Sep-14 14:23N 37°52' E 023°45'0 0.0
2017-Sep-14 13:53N 37°52' E 023°45'0 0.0
2017-Sep-14 13:29N 37°52' E 023°45'0 0.0
2017-Sep-14 12:53N 37°52' E 023°45'0 0.0
2017-Sep-14 12:29N 37°52' E 023°45'0 0.0
2017-Sep-14 11:59N 37°52' E 023°45'0 0.0
2017-Sep-14 11:29N 37°52' E 023°45'0 0.0
2017-Sep-14 10:50N 37°52' E 023°45'0 0.0
2017-Sep-14 10:29N 37°52' E 023°45'0 0.0
2017-Sep-14 09:56N 37°52' E 023°45'0 0.0
2017-Sep-14 09:29N 37°52' E 023°45'0 0.0
2017-Sep-14 08:47N 37°52' E 023°45'0 0.0
2017-Sep-14 08:26N 37°52' E 023°45'0 0.0
2017-Sep-14 07:59N 37°52' E 023°45'0 0.0
2017-Sep-14 07:26N 37°52' E 023°45'0 0.0
2017-Sep-14 06:59N 37°52' E 023°45'0 0.0
2017-Sep-14 06:29N 37°52' E 023°45'0 0.0
2017-Sep-14 05:59N 37°52' E 023°45'0 0.0
2017-Sep-14 05:29N 37°52' E 023°45'0 0.0
2017-Sep-14 04:59N 37°52' E 023°45'0 0.0
2017-Sep-14 04:29N 37°52' E 023°45'0 0.0
2017-Sep-14 03:59N 37°52' E 023°45'0 0.0
2017-Sep-14 03:17N 37°52' E 023°45'0 0.0
2017-Sep-14 02:59N 37°52' E 023°45'0 0.0
2017-Sep-14 02:23N 37°52' E 023°45'0 0.0
2017-Sep-14 01:59N 37°52' E 023°45'0 0.0
2017-Sep-14 01:29N 37°52' E 023°45'0 0.0
2017-Sep-14 00:59N 37°52' E 023°45'0 0.0
2017-Sep-14 00:29N 37°52' E 023°45'0 0.0
2017-Sep-13 23:59N 37°52' E 023°45'0 0.0
2017-Sep-13 23:17N 37°52' E 023°45'0 0.0
2017-Sep-13 22:59N 37°52' E 023°45'0 0.0
2017-Sep-13 22:29N 37°52' E 023°45'0 0.0
2017-Sep-13 21:53N 37°52' E 023°45'0 0.0
2017-Sep-13 21:29N 37°52' E 023°45'0 0.0
2017-Sep-13 20:56N 37°52' E 023°45'0 0.0
2017-Sep-13 20:23N 37°52' E 023°45'0 0.0
2017-Sep-13 19:47N 37°52' E 023°45'0 0.0
2017-Sep-13 19:29N 37°52' E 023°45'0 0.0
2017-Sep-13 18:47N 37°52' E 023°45'0 0.0
2017-Sep-13 18:23N 37°52' E 023°45'0 0.0
2017-Sep-13 17:59N 37°52' E 023°45'0 0.0
2017-Sep-13 17:29N 37°52' E 023°45'0 0.0
2017-Sep-13 15:53N 37°52' E 023°45'0 0.0
2017-Sep-13 14:59N 37°52' E 023°45'0 0.0
2017-Sep-13 14:23N 37°52' E 023°45'0 0.0
2017-Sep-13 13:59N 37°52' E 023°45'0 0.0
2017-Sep-13 13:29N 37°52' E 023°45'0 0.0
2017-Sep-13 12:59N 37°52' E 023°45'0 0.0
2017-Sep-13 12:29N 37°52' E 023°45'0 0.0
2017-Sep-13 11:56N 37°52' E 023°45'0 0.0
2017-Sep-13 11:29N 37°52' E 023°45'0 0.0
2017-Sep-13 10:53N 37°52' E 023°45'0 0.0
2017-Sep-13 10:23N 37°52' E 023°45'0 0.0
2017-Sep-13 09:41N 37°52' E 023°45'0 0.0
2017-Sep-13 09:05N 37°52' E 023°45'0 0.0
2017-Sep-13 08:38N 37°52' E 023°45'0 0.0
2017-Sep-13 08:29N 37°52' E 023°45'0 0.0
2017-Sep-13 07:59N 37°52' E 023°45'0 0.0
2017-Sep-13 07:26N 37°52' E 023°45'0 0.0
2017-Sep-13 06:59N 37°52' E 023°45'0 0.0
2017-Sep-13 06:26N 37°52' E 023°45'0 0.0
2017-Sep-13 05:53N 37°52' E 023°45'0 0.0
2017-Sep-13 05:29N 37°52' E 023°45'0 0.0
2017-Sep-13 04:59N 37°52' E 023°45'0 0.0
2017-Sep-13 04:29N 37°52' E 023°45'0 0.0
2017-Sep-13 03:59N 37°52' E 023°45'0 0.0
2017-Sep-13 03:29N 37°52' E 023°45'0 0.0
2017-Sep-13 02:59N 37°52' E 023°45'0 0.0
2017-Sep-13 02:29N 37°52' E 023°45'0 0.0
2017-Sep-13 01:59N 37°52' E 023°45'0 0.0
2017-Sep-13 01:29N 37°52' E 023°45'0 0.0
2017-Sep-13 00:59N 37°52' E 023°45'0 0.0
2017-Sep-13 00:29N 37°52' E 023°45'0 0.0
2017-Sep-12 23:56N 37°52' E 023°45'0 0.0
2017-Sep-12 23:29N 37°52' E 023°45'0 0.0
2017-Sep-12 22:44N 37°52' E 023°45'0 0.0
2017-Sep-12 22:17N 37°52' E 023°45'0 0.0
2017-Sep-12 21:59N 37°52' E 023°45'0 0.0
2017-Sep-12 21:29N 37°52' E 023°45'0 0.0
2017-Sep-12 20:50N 37°52' E 023°45'0 0.0
2017-Sep-12 20:29N 37°52' E 023°45'0 0.0
2017-Sep-12 19:59N 37°52' E 023°45'0 0.0
2017-Sep-12 19:29N 37°52' E 023°45'0 0.0
2017-Sep-12 18:59N 37°52' E 023°45'0 0.0
2017-Sep-12 18:29N 37°52' E 023°45'0 0.0
2017-Sep-12 17:59N 37°52' E 023°45'0 0.0
2017-Sep-12 17:29N 37°52' E 023°45'0 0.0
2017-Sep-12 16:59N 37°52' E 023°45'0 0.0
2017-Sep-12 16:29N 37°52' E 023°45'0 0.0
2017-Sep-12 15:59N 37°52' E 023°45'0 0.0
2017-Sep-12 15:29N 37°52' E 023°45'0 0.0
2017-Sep-12 14:59N 37°52' E 023°45'0 0.0
2017-Sep-12 14:23N 37°52' E 023°45'0 0.0
2017-Sep-12 13:56N 37°52' E 023°45'0 0.0
2017-Sep-12 13:23N 37°52' E 023°45'0 0.0
2017-Sep-12 12:59N 37°52' E 023°45'0 0.0
2017-Sep-12 12:29N 37°52' E 023°45'0 0.0
2017-Sep-12 11:59N 37°52' E 023°45'0 0.0
2017-Sep-12 11:29N 37°52' E 023°45'0 0.0
2017-Sep-12 10:56N 37°52' E 023°45'0 0.0
2017-Sep-12 10:29N 37°52' E 023°45'0 0.0
2017-Sep-12 09:59N 37°52' E 023°45'0 0.0
2017-Sep-12 09:29N 37°52' E 023°45'0 0.0
2017-Sep-12 08:59N 37°52' E 023°45'0 0.0
2017-Sep-12 08:29N 37°52' E 023°45'0 0.0
2017-Sep-12 07:59N 37°52' E 023°45'0 0.0
2017-Sep-12 07:29N 37°52' E 023°45'0 0.0
2017-Sep-12 06:59N 37°52' E 023°45'0 0.0
2017-Sep-12 06:26N 37°52' E 023°45'0 0.0
2017-Sep-12 05:59N 37°52' E 023°45'0 0.0
2017-Sep-12 05:29N 37°52' E 023°45'0 0.0
2017-Sep-12 04:59N 37°52' E 023°45'0 0.0
2017-Sep-12 04:29N 37°52' E 023°45'0 0.0
2017-Sep-12 03:56N 37°52' E 023°45'0 0.0
2017-Sep-12 03:26N 37°52' E 023°45'0 0.0
2017-Sep-12 02:59N 37°52' E 023°45'0 0.0
2017-Sep-12 02:23N 37°52' E 023°45'0 0.0
2017-Sep-12 01:59N 37°52' E 023°45'0 0.0
2017-Sep-12 01:29N 37°52' E 023°45'0 0.0
2017-Sep-12 00:59N 37°52' E 023°45'0 0.0
2017-Sep-12 00:29N 37°52' E 023°45'0 0.0
2017-Sep-11 23:59N 37°52' E 023°45'0 0.0
2017-Sep-11 23:29N 37°52' E 023°45'0 0.0
2017-Sep-11 22:59N 37°52' E 023°45'0 0.0
2017-Sep-11 22:17N 37°52' E 023°45'0 0.0
2017-Sep-11 21:47N 37°52' E 023°45'0 0.0
2017-Sep-11 21:29N 37°52' E 023°45'0 0.0
2017-Sep-11 20:59N 37°52' E 023°45'0 0.0
2017-Sep-11 20:29N 37°52' E 023°45'0 0.0
2017-Sep-11 19:59N 37°52' E 023°45'0 0.0
2017-Sep-11 19:29N 37°52' E 023°45'0 0.0
2017-Sep-11 18:59N 37°52' E 023°45'0 0.0
2017-Sep-11 18:29N 37°52' E 023°45'0 0.0
2017-Sep-11 17:59N 37°52' E 023°45'0 0.0
2017-Sep-11 17:29N 37°52' E 023°45'0 0.0
2017-Sep-11 16:59N 37°52' E 023°45'0 0.0
2017-Sep-11 16:29N 37°52' E 023°45'0 0.0
2017-Sep-11 15:59N 37°52' E 023°45'0 0.0
2017-Sep-11 15:29N 37°52' E 023°45'0 0.0
2017-Sep-11 14:59N 37°52' E 023°45'0 0.0
2017-Sep-11 14:29N 37°52' E 023°45'0 0.0
2017-Sep-11 13:59N 37°52' E 023°45'0 0.0
2017-Sep-11 13:23N 37°52' E 023°45'0 0.0
2017-Sep-11 12:59N 37°52' E 023°45'0 0.0
2017-Sep-11 12:23N 37°52' E 023°45'0 0.0
2017-Sep-11 11:59N 37°52' E 023°45'0 0.0
2017-Sep-11 11:29N 37°52' E 023°45'0 0.0
2017-Sep-11 10:59N 37°52' E 023°45'0 0.0
2017-Sep-11 10:26N 37°52' E 023°45'0 0.0
2017-Sep-11 09:59N 37°52' E 023°45'0 0.0
2017-Sep-11 09:17N 37°52' E 023°45'0 0.0
2017-Sep-11 08:53N 37°52' E 023°45'0 0.0
2017-Sep-11 08:26N 37°52' E 023°45'0 0.0
2017-Sep-11 07:59N 37°52' E 023°45'0 0.0
2017-Sep-11 07:29N 37°52' E 023°45'0 0.0
2017-Sep-11 06:47N 37°52' E 023°45'0 0.0
2017-Sep-11 06:29N 37°52' E 023°45'0 0.0
2017-Sep-11 05:59N 37°52' E 023°45'0 0.0
2017-Sep-11 05:26N 37°52' E 023°45'0 0.0
2017-Sep-11 04:59N 37°52' E 023°45'0 0.0
2017-Sep-11 04:29N 37°52' E 023°45'0 0.0
2017-Sep-11 03:59N 37°52' E 023°45'0 0.0
2017-Sep-11 03:29N 37°52' E 023°45'0 0.0
2017-Sep-11 02:59N 37°52' E 023°45'0 0.0
2017-Sep-11 02:29N 37°52' E 023°45'0 0.0
2017-Sep-11 01:59N 37°52' E 023°45'0 0.0
2017-Sep-11 01:29N 37°52' E 023°45'0 0.0
2017-Sep-11 00:59N 37°52' E 023°45'0 0.0
2017-Sep-11 00:29N 37°52' E 023°45'0 0.0
2017-Sep-10 23:59N 37°52' E 023°45'0 0.0
2017-Sep-10 23:29N 37°52' E 023°45'0 0.0
2017-Sep-10 22:59N 37°52' E 023°45'0 0.0
2017-Sep-10 22:26N 37°52' E 023°45'0 0.0
2017-Sep-10 21:59N 37°52' E 023°45'0 0.0
2017-Sep-10 21:23N 37°52' E 023°45'0 0.0
2017-Sep-10 20:59N 37°52' E 023°45'0 0.0
2017-Sep-10 20:29N 37°52' E 023°45'0 0.0
2017-Sep-10 19:59N 37°52' E 023°45'0 0.0
2017-Sep-10 19:29N 37°52' E 023°45'0 0.0
2017-Sep-10 18:59N 37°52' E 023°45'0 0.0
2017-Sep-10 18:29N 37°52' E 023°45'0 0.0
2017-Sep-10 17:59N 37°52' E 023°45'0 0.0
2017-Sep-10 17:26N 37°52' E 023°45'0 0.0
2017-Sep-10 16:59N 37°52' E 023°45'0 0.0
2017-Sep-10 16:29N 37°52' E 023°45'0 0.0
2017-Sep-10 15:59N 37°52' E 023°45'0 0.0
2017-Sep-10 15:23N 37°52' E 023°45'0 0.0
2017-Sep-10 14:59N 37°52' E 023°45'0 0.0
2017-Sep-10 13:59N 37°52' E 023°45'0 0.0
2017-Sep-10 13:29N 37°52' E 023°45'0 0.0
2017-Sep-10 12:47N 37°52' E 023°45'0 0.0
2017-Sep-10 12:29N 37°52' E 023°45'0 0.0
2017-Sep-10 11:53N 37°52' E 023°45'0 0.0
2017-Sep-10 11:20N 37°52' E 023°45'0 0.0
2017-Sep-10 10:59N 37°52' E 023°45'0 0.0
2017-Sep-10 10:29N 37°52' E 023°45'0 0.0
2017-Sep-10 09:59N 37°52' E 023°45'0 0.0
2017-Sep-10 09:26N 37°52' E 023°45'0 0.0
2017-Sep-10 08:56N 37°52' E 023°45'0 0.0
2017-Sep-10 08:23N 37°52' E 023°45'0 0.0
2017-Sep-10 07:59N 37°52' E 023°45'0 0.0
2017-Sep-10 07:29N 37°52' E 023°45'0 0.0
2017-Sep-10 06:59N 37°52' E 023°45'0 0.0
2017-Sep-10 06:29N 37°52' E 023°45'0 0.0
2017-Sep-10 05:56N 37°52' E 023°45'0 0.0
2017-Sep-10 05:29N 37°52' E 023°45'0 0.0
2017-Sep-10 04:53N 37°52' E 023°45'0 0.0
2017-Sep-10 04:29N 37°52' E 023°45'0 0.0
2017-Sep-10 03:59N 37°52' E 023°45'0 0.0
2017-Sep-10 03:29N 37°52' E 023°45'0 0.0
2017-Sep-10 02:59N 37°52' E 023°45'0 0.0
2017-Sep-10 02:29N 37°52' E 023°45'0 0.0
2017-Sep-10 01:59N 37°52' E 023°45'0 0.0
2017-Sep-10 01:29N 37°52' E 023°45'0 0.0
2017-Sep-10 00:59N 37°52' E 023°45'0 0.0
2017-Sep-10 00:29N 37°52' E 023°45'0 0.0
2017-Sep-09 23:59N 37°52' E 023°45'0 0.0
2017-Sep-09 23:29N 37°52' E 023°45'0 0.0
2017-Sep-09 22:59N 37°52' E 023°45'0 0.0
2017-Sep-09 22:29N 37°52' E 023°45'0 0.0
2017-Sep-09 21:59N 37°52' E 023°45'0 0.0
2017-Sep-09 21:29N 37°52' E 023°45'0 0.0
2017-Sep-09 20:59N 37°52' E 023°45'0 0.0
2017-Sep-09 20:26N 37°52' E 023°45'0 0.0
2017-Sep-09 19:59N 37°52' E 023°45'0 0.0
2017-Sep-09 19:29N 37°52' E 023°45'0 0.0
2017-Sep-09 18:59N 37°52' E 023°45'0 0.0
2017-Sep-09 18:29N 37°52' E 023°45'0 0.0
2017-Sep-09 17:59N 37°52' E 023°45'0 0.0
2017-Sep-09 17:29N 37°52' E 023°45'0 0.0
2017-Sep-09 16:59N 37°52' E 023°45'0 0.0
2017-Sep-09 16:29N 37°52' E 023°45'0 0.0
2017-Sep-09 15:59N 37°52' E 023°45'0 0.0
2017-Sep-09 15:26N 37°52' E 023°45'0 0.0
2017-Sep-09 14:47N 37°52' E 023°45'0 0.0
2017-Sep-09 14:29N 37°52' E 023°45'9 1.2
2017-Sep-09 07:06N 37°45' E 023°37'330.4
2017-Sep-09 07:00N 37°48' E 023°40'6 6.7
2017-Sep-09 06:10N 37°52' E 023°45'0 0.0
2017-Sep-09 01:10N 37°52' E 023°45'0 0.0
2017-Sep-08 21:28N 37°52' E 023°45'0 0.0
2017-Sep-08 20:58N 37°52' E 023°45'0 0.0
2017-Sep-08 19:43N 37°52' E 023°45'0 0.0
2017-Sep-08 19:28N 37°52' E 023°45'0 0.0
2017-Sep-08 17:58N 37°52' E 023°45'0 0.0
2017-Sep-08 16:58N 37°52' E 023°45'0 0.0
2017-Sep-08 16:16N 37°52' E 023°45'0 0.0
2017-Sep-08 15:16N 37°52' E 023°45'0 0.0
2017-Sep-08 14:40N 37°52' E 023°45'0 0.0
2017-Sep-08 14:28N 37°52' E 023°45'0 0.0
2017-Sep-08 13:46N 37°52' E 023°45'0 0.0
2017-Sep-08 13:22N 37°52' E 023°45'0 0.0
2017-Sep-08 09:34N 37°52' E 023°45'0 0.0
2017-Sep-08 09:25N 37°52' E 023°45'  
Track history (hours):
 
Tides and Currents Weather Stations Pressure Air Temp Water Temp Dewpoint Dewpoint Depression Visibility Wind Speed Wind Dir Waves Ship Positions

Sea Link 3

Last reported at 2017-Sep-18 09:15 UTC. Time now 2017-Sep-19 22:43 UTC.
Position N 37°02' E 025°05'.

Length 13 m.

Type: Pleasure craft. MMSI: 239934200.

Date/timePositionNaut miles runAvg speedWind from/ knotsBaromVisibWave heightAir tempDewpointWater temp
2017-Sep-18 09:15N 37°02' E 025°05'0 2.0
2017-Sep-18 09:00N 37°02' E 025°05'0 0.0
2017-Sep-18 08:30N 37°02' E 025°05'9 5.0
2017-Sep-18 06:41N 37°08' E 025°14'1 0.0
2017-Sep-17 12:33N 37°09' E 025°14'1 0.7
2017-Sep-17 11:42N 37°08' E 025°14'1 2.8
2017-Sep-17 11:29N 37°09' E 025°14'0 0.0
2017-Sep-17 10:59N 37°09' E 025°14'0 0.0
2017-Sep-17 10:26N 37°09' E 025°14'0 0.3
2017-Sep-17 10:00N 37°09' E 025°14'1425.0
2017-Sep-17 09:27N 37°22' E 025°19'3 6.3
2017-Sep-17 08:55N 37°25' E 025°20'0 0.0
2017-Sep-17 08:28N 37°25' E 025°20'0 0.0
2017-Sep-16 19:25N 37°25' E 025°20'0 0.0
2017-Sep-16 18:52N 37°25' E 025°20'0 0.0
2017-Sep-16 18:28N 37°25' E 025°20'0 0.0
2017-Sep-16 17:58N 37°25' E 025°20'0 0.0
2017-Sep-16 17:22N 37°25' E 025°20'0 0.0
2017-Sep-16 16:55N 37°25' E 025°20'0 0.0
2017-Sep-16 16:28N 37°25' E 025°20'0 0.0
2017-Sep-16 15:55N 37°25' E 025°20'0 0.0
2017-Sep-16 15:28N 37°25' E 025°20'0 0.0
2017-Sep-16 14:58N 37°25' E 025°20'0 0.0
2017-Sep-16 14:28N 37°25' E 025°20'0 0.0
2017-Sep-16 13:58N 37°25' E 025°20'0 0.0
2017-Sep-16 13:28N 37°25' E 025°20'0 0.0
2017-Sep-16 12:59N 37°25' E 025°19'5 5.8
2017-Sep-16 12:11N 37°23' E 025°14'0 0.0
2017-Sep-16 11:56N 37°23' E 025°14'1 2.3
2017-Sep-16 11:30N 37°23' E 025°15'1 2.2
2017-Sep-16 10:51N 37°24' E 025°16'0 0.1
2017-Sep-16 10:12N 37°24' E 025°16'2 0.9
2017-Sep-16 07:54N 37°24' E 025°13'13 0.7
2017-Sep-15 13:38N 37°23' E 024°57'429.3
2017-Sep-15 13:30N 37°22' E 024°53'10 2.9
2017-Sep-15 10:11N 37°30' E 024°47'5016.2
2017-Sep-15 07:05N 37°47' E 023°47'328.6
2017-Sep-15 07:00N 37°49' E 023°45'3 5.7
2017-Sep-15 06:29N 37°52' E 023°45'0 0.0
2017-Sep-15 05:59N 37°52' E 023°45'0 0.0
2017-Sep-15 05:17N 37°52' E 023°45'0 0.0
2017-Sep-15 04:59N 37°52' E 023°45'0 0.0
2017-Sep-15 04:29N 37°52' E 023°45'0 0.0
2017-Sep-15 03:53N 37°52' E 023°45'0 0.0
2017-Sep-15 03:23N 37°52' E 023°45'0 0.0
2017-Sep-15 02:59N 37°52' E 023°45'0 0.0
2017-Sep-15 02:29N 37°52' E 023°45'0 0.0
2017-Sep-15 01:59N 37°52' E 023°45'0 0.0
2017-Sep-15 01:29N 37°52' E 023°45'0 0.0
2017-Sep-15 00:59N 37°52' E 023°45'0 0.0
2017-Sep-15 00:29N 37°52' E 023°45'0 0.0
2017-Sep-14 23:53N 37°52' E 023°45'0 0.0
2017-Sep-14 23:29N 37°52' E 023°45'0 0.0
2017-Sep-14 22:59N 37°52' E 023°45'0 0.0
2017-Sep-14 22:29N 37°52' E 023°45'0 0.0
2017-Sep-14 21:53N 37°52' E 023°45'0 0.0
2017-Sep-14 21:29N 37°52' E 023°45'0 0.0
2017-Sep-14 20:59N 37°52' E 023°45'0 0.0
2017-Sep-14 20:29N 37°52' E 023°45'0 0.0
2017-Sep-14 19:59N 37°52' E 023°45'0 0.0
2017-Sep-14 19:11N 37°52' E 023°45'0 0.0
2017-Sep-14 18:53N 37°52' E 023°45'0 0.0
2017-Sep-14 18:26N 37°52' E 023°45'0 0.0
2017-Sep-14 17:47N 37°52' E 023°45'0 0.0
2017-Sep-14 17:23N 37°52' E 023°45'0 0.0
2017-Sep-14 16:59N 37°52' E 023°45'0 0.0
2017-Sep-14 16:23N 37°52' E 023°45'0 0.0
2017-Sep-14 15:56N 37°52' E 023°45'0 0.0
2017-Sep-14 15:29N 37°52' E 023°45'0 0.0
2017-Sep-14 14:59N 37°52' E 023°45'0 0.0
2017-Sep-14 14:23N 37°52' E 023°45'0 0.0
2017-Sep-14 13:53N 37°52' E 023°45'0 0.0
2017-Sep-14 13:29N 37°52' E 023°45'0 0.0
2017-Sep-14 12:53N 37°52' E 023°45'0 0.0
2017-Sep-14 12:29N 37°52' E 023°45'0 0.0
2017-Sep-14 11:59N 37°52' E 023°45'0 0.0
2017-Sep-14 11:29N 37°52' E 023°45'0 0.0
2017-Sep-14 10:50N 37°52' E 023°45'0 0.0
2017-Sep-14 10:29N 37°52' E 023°45'0 0.0
2017-Sep-14 09:56N 37°52' E 023°45'0 0.0
2017-Sep-14 09:29N 37°52' E 023°45'0 0.0
2017-Sep-14 08:47N 37°52' E 023°45'0 0.0
2017-Sep-14 08:26N 37°52' E 023°45'0 0.0
2017-Sep-14 07:59N 37°52' E 023°45'0 0.0
2017-Sep-14 07:26N 37°52' E 023°45'0 0.0
2017-Sep-14 06:59N 37°52' E 023°45'0 0.0
2017-Sep-14 06:29N 37°52' E 023°45'0 0.0
2017-Sep-14 05:59N 37°52' E 023°45'0 0.0
2017-Sep-14 05:29N 37°52' E 023°45'0 0.0
2017-Sep-14 04:59N 37°52' E 023°45'0 0.0
2017-Sep-14 04:29N 37°52' E 023°45'0 0.0
2017-Sep-14 03:59N 37°52' E 023°45'0 0.0
2017-Sep-14 03:17N 37°52' E 023°45'0 0.0
2017-Sep-14 02:59N 37°52' E 023°45'0 0.0
2017-Sep-14 02:23N 37°52' E 023°45'0 0.0
2017-Sep-14 01:59N 37°52' E 023°45'0 0.0
2017-Sep-14 01:29N 37°52' E 023°45'0 0.0
2017-Sep-14 00:59N 37°52' E 023°45'0 0.0
2017-Sep-14 00:29N 37°52' E 023°45'0 0.0
2017-Sep-13 23:59N 37°52' E 023°45'0 0.0
2017-Sep-13 23:17N 37°52' E 023°45'0 0.0
2017-Sep-13 22:59N 37°52' E 023°45'0 0.0
2017-Sep-13 22:29N 37°52' E 023°45'0 0.0
2017-Sep-13 21:53N 37°52' E 023°45'0 0.0
2017-Sep-13 21:29N 37°52' E 023°45'0 0.0
2017-Sep-13 20:56N 37°52' E 023°45'0 0.0
2017-Sep-13 20:23N 37°52' E 023°45'0 0.0
2017-Sep-13 19:47N 37°52' E 023°45'0 0.0
2017-Sep-13 19:29N 37°52' E 023°45'0 0.0
2017-Sep-13 18:47N 37°52' E 023°45'0 0.0
2017-Sep-13 18:23N 37°52' E 023°45'0 0.0
2017-Sep-13 17:59N 37°52' E 023°45'0 0.0
2017-Sep-13 17:29N 37°52' E 023°45'0 0.0
2017-Sep-13 15:53N 37°52' E 023°45'0 0.0
2017-Sep-13 14:59N 37°52' E 023°45'0 0.0
2017-Sep-13 14:23N 37°52' E 023°45'0 0.0
2017-Sep-13 13:59N 37°52' E 023°45'0 0.0
2017-Sep-13 13:29N 37°52' E 023°45'0 0.0
2017-Sep-13 12:59N 37°52' E 023°45'0 0.0
2017-Sep-13 12:29N 37°52' E 023°45'0 0.0
2017-Sep-13 11:56N 37°52' E 023°45'0 0.0
2017-Sep-13 11:29N 37°52' E 023°45'0 0.0
2017-Sep-13 10:53N 37°52' E 023°45'0 0.0
2017-Sep-13 10:23N 37°52' E 023°45'0 0.0
2017-Sep-13 09:41N 37°52' E 023°45'0 0.0
2017-Sep-13 09:05N 37°52' E 023°45'0 0.0
2017-Sep-13 08:38N 37°52' E 023°45'0 0.0
2017-Sep-13 08:29N 37°52' E 023°45'0 0.0
2017-Sep-13 07:59N 37°52' E 023°45'0 0.0
2017-Sep-13 07:26N 37°52' E 023°45'0 0.0
2017-Sep-13 06:59N 37°52' E 023°45'0 0.0
2017-Sep-13 06:26N 37°52' E 023°45'0 0.0
2017-Sep-13 05:53N 37°52' E 023°45'0 0.0
2017-Sep-13 05:29N 37°52' E 023°45'0 0.0
2017-Sep-13 04:59N 37°52' E 023°45'0 0.0
2017-Sep-13 04:29N 37°52' E 023°45'0 0.0
2017-Sep-13 03:59N 37°52' E 023°45'0 0.0
2017-Sep-13 03:29N 37°52' E 023°45'0 0.0
2017-Sep-13 02:59N 37°52' E 023°45'0 0.0
2017-Sep-13 02:29N 37°52' E 023°45'0 0.0
2017-Sep-13 01:59N 37°52' E 023°45'0 0.0
2017-Sep-13 01:29N 37°52' E 023°45'0 0.0
2017-Sep-13 00:59N 37°52' E 023°45'0 0.0
2017-Sep-13 00:29N 37°52' E 023°45'0 0.0
2017-Sep-12 23:56N 37°52' E 023°45'0 0.0
2017-Sep-12 23:29N 37°52' E 023°45'0 0.0
2017-Sep-12 22:44N 37°52' E 023°45'0 0.0
2017-Sep-12 22:17N 37°52' E 023°45'0 0.0
2017-Sep-12 21:59N 37°52' E 023°45'0 0.0
2017-Sep-12 21:29N 37°52' E 023°45'0 0.0
2017-Sep-12 20:50N 37°52' E 023°45'0 0.0
2017-Sep-12 20:29N 37°52' E 023°45'0 0.0
2017-Sep-12 19:59N 37°52' E 023°45'0 0.0
2017-Sep-12 19:29N 37°52' E 023°45'0 0.0
2017-Sep-12 18:59N 37°52' E 023°45'0 0.0
2017-Sep-12 18:29N 37°52' E 023°45'0 0.0
2017-Sep-12 17:59N 37°52' E 023°45'0 0.0
2017-Sep-12 17:29N 37°52' E 023°45'0 0.0
2017-Sep-12 16:59N 37°52' E 023°45'0 0.0
2017-Sep-12 16:29N 37°52' E 023°45'0 0.0
2017-Sep-12 15:59N 37°52' E 023°45'0 0.0
2017-Sep-12 15:29N 37°52' E 023°45'0 0.0
2017-Sep-12 14:59N 37°52' E 023°45'0 0.0
2017-Sep-12 14:23N 37°52' E 023°45'0 0.0
2017-Sep-12 13:56N 37°52' E 023°45'0 0.0
2017-Sep-12 13:23N 37°52' E 023°45'0 0.0
2017-Sep-12 12:59N 37°52' E 023°45'0 0.0
2017-Sep-12 12:29N 37°52' E 023°45'0 0.0
2017-Sep-12 11:59N 37°52' E 023°45'0 0.0
2017-Sep-12 11:29N 37°52' E 023°45'0 0.0
2017-Sep-12 10:56N 37°52' E 023°45'0 0.0
2017-Sep-12 10:29N 37°52' E 023°45'0 0.0
2017-Sep-12 09:59N 37°52' E 023°45'0 0.0
2017-Sep-12 09:29N 37°52' E 023°45'0 0.0
2017-Sep-12 08:59N 37°52' E 023°45'0 0.0
2017-Sep-12 08:29N 37°52' E 023°45'0 0.0
2017-Sep-12 07:59N 37°52' E 023°45'0 0.0
2017-Sep-12 07:29N 37°52' E 023°45'0 0.0
2017-Sep-12 06:59N 37°52' E 023°45'0 0.0
2017-Sep-12 06:26N 37°52' E 023°45'0 0.0
2017-Sep-12 05:59N 37°52' E 023°45'0 0.0
2017-Sep-12 05:29N 37°52' E 023°45'0 0.0
2017-Sep-12 04:59N 37°52' E 023°45'0 0.0
2017-Sep-12 04:29N 37°52' E 023°45'0 0.0
2017-Sep-12 03:56N 37°52' E 023°45'0 0.0
2017-Sep-12 03:26N 37°52' E 023°45'0 0.0
2017-Sep-12 02:59N 37°52' E 023°45'0 0.0
2017-Sep-12 02:23N 37°52' E 023°45'0 0.0
2017-Sep-12 01:59N 37°52' E 023°45'0 0.0
2017-Sep-12 01:29N 37°52' E 023°45'0 0.0
2017-Sep-12 00:59N 37°52' E 023°45'0 0.0
2017-Sep-12 00:29N 37°52' E 023°45'0 0.0
2017-Sep-11 23:59N 37°52' E 023°45'0 0.0
2017-Sep-11 23:29N 37°52' E 023°45'0 0.0
2017-Sep-11 22:59N 37°52' E 023°45'0 0.0
2017-Sep-11 22:17N 37°52' E 023°45'0 0.0
2017-Sep-11 21:47N 37°52' E 023°45'0 0.0
2017-Sep-11 21:29N 37°52' E 023°45'0 0.0
2017-Sep-11 20:59N 37°52' E 023°45'0 0.0
2017-Sep-11 20:29N 37°52' E 023°45'0 0.0
2017-Sep-11 19:59N 37°52' E 023°45'0 0.0
2017-Sep-11 19:29N 37°52' E 023°45'0 0.0
2017-Sep-11 18:59N 37°52' E 023°45'0 0.0
2017-Sep-11 18:29N 37°52' E 023°45'0 0.0
2017-Sep-11 17:59N 37°52' E 023°45'0 0.0
2017-Sep-11 17:29N 37°52' E 023°45'0 0.0
2017-Sep-11 16:59N 37°52' E 023°45'0 0.0
2017-Sep-11 16:29N 37°52' E 023°45'0 0.0
2017-Sep-11 15:59N 37°52' E 023°45'0 0.0
2017-Sep-11 15:29N 37°52' E 023°45'0 0.0
2017-Sep-11 14:59N 37°52' E 023°45'0 0.0
2017-Sep-11 14:29N 37°52' E 023°45'0 0.0
2017-Sep-11 13:59N 37°52' E 023°45'0 0.0
2017-Sep-11 13:23N 37°52' E 023°45'0 0.0
2017-Sep-11 12:59N 37°52' E 023°45'0 0.0
2017-Sep-11 12:23N 37°52' E 023°45'0 0.0
2017-Sep-11 11:59N 37°52' E 023°45'0 0.0
2017-Sep-11 11:29N 37°52' E 023°45'0 0.0
2017-Sep-11 10:59N 37°52' E 023°45'0 0.0
2017-Sep-11 10:26N 37°52' E 023°45'0 0.0
2017-Sep-11 09:59N 37°52' E 023°45'0 0.0
2017-Sep-11 09:17N 37°52' E 023°45'0 0.0
2017-Sep-11 08:53N 37°52' E 023°45'0 0.0
2017-Sep-11 08:26N 37°52' E 023°45'0 0.0
2017-Sep-11 07:59N 37°52' E 023°45'0 0.0
2017-Sep-11 07:29N 37°52' E 023°45'0 0.0
2017-Sep-11 06:47N 37°52' E 023°45'0 0.0
2017-Sep-11 06:29N 37°52' E 023°45'0 0.0
2017-Sep-11 05:59N 37°52' E 023°45'0 0.0
2017-Sep-11 05:26N 37°52' E 023°45'0 0.0
2017-Sep-11 04:59N 37°52' E 023°45'0 0.0
2017-Sep-11 04:29N 37°52' E 023°45'0 0.0
2017-Sep-11 03:59N 37°52' E 023°45'0 0.0
2017-Sep-11 03:29N 37°52' E 023°45'0 0.0
2017-Sep-11 02:59N 37°52' E 023°45'0 0.0
2017-Sep-11 02:29N 37°52' E 023°45'0 0.0
2017-Sep-11 01:59N 37°52' E 023°45'0 0.0
2017-Sep-11 01:29N 37°52' E 023°45'0 0.0
2017-Sep-11 00:59N 37°52' E 023°45'0 0.0
2017-Sep-11 00:29N 37°52' E 023°45'0 0.0
2017-Sep-10 23:59N 37°52' E 023°45'0 0.0
2017-Sep-10 23:29N 37°52' E 023°45'0 0.0
2017-Sep-10 22:59N 37°52' E 023°45'0 0.0
2017-Sep-10 22:26N 37°52' E 023°45'0 0.0
2017-Sep-10 21:59N 37°52' E 023°45'0 0.0
2017-Sep-10 21:23N 37°52' E 023°45'0 0.0
2017-Sep-10 20:59N 37°52' E 023°45'0 0.0
2017-Sep-10 20:29N 37°52' E 023°45'0 0.0
2017-Sep-10 19:59N 37°52' E 023°45'0 0.0
2017-Sep-10 19:29N 37°52' E 023°45'0 0.0
2017-Sep-10 18:59N 37°52' E 023°45'0 0.0
2017-Sep-10 18:29N 37°52' E 023°45'0 0.0
2017-Sep-10 17:59N 37°52' E 023°45'0 0.0
2017-Sep-10 17:26N 37°52' E 023°45'0 0.0
2017-Sep-10 16:59N 37°52' E 023°45'0 0.0
2017-Sep-10 16:29N 37°52' E 023°45'0 0.0
2017-Sep-10 15:59N 37°52' E 023°45'0 0.0
2017-Sep-10 15:23N 37°52' E 023°45'0 0.0
2017-Sep-10 14:59N 37°52' E 023°45'0 0.0
2017-Sep-10 13:59N 37°52' E 023°45'0 0.0
2017-Sep-10 13:29N 37°52' E 023°45'0 0.0
2017-Sep-10 12:47N 37°52' E 023°45'0 0.0
2017-Sep-10 12:29N 37°52' E 023°45'0 0.0
2017-Sep-10 11:53N 37°52' E 023°45'0 0.0
2017-Sep-10 11:20N 37°52' E 023°45'0 0.0
2017-Sep-10 10:59N 37°52' E 023°45'0 0.0
2017-Sep-10 10:29N 37°52' E 023°45'0 0.0
2017-Sep-10 09:59N 37°52' E 023°45'0 0.0
2017-Sep-10 09:26N 37°52' E 023°45'0 0.0
2017-Sep-10 08:56N 37°52' E 023°45'0 0.0
2017-Sep-10 08:23N 37°52' E 023°45'0 0.0
2017-Sep-10 07:59N 37°52' E 023°45'0 0.0
2017-Sep-10 07:29N 37°52' E 023°45'0 0.0
2017-Sep-10 06:59N 37°52' E 023°45'0 0.0
2017-Sep-10 06:29N 37°52' E 023°45'0 0.0
2017-Sep-10 05:56N 37°52' E 023°45'0 0.0
2017-Sep-10 05:29N 37°52' E 023°45'0 0.0
2017-Sep-10 04:53N 37°52' E 023°45'0 0.0
2017-Sep-10 04:29N 37°52' E 023°45'0 0.0
2017-Sep-10 03:59N 37°52' E 023°45'0 0.0
2017-Sep-10 03:29N 37°52' E 023°45'0 0.0
2017-Sep-10 02:59N 37°52' E 023°45'0 0.0
2017-Sep-10 02:29N 37°52' E 023°45'0 0.0
2017-Sep-10 01:59N 37°52' E 023°45'0 0.0
2017-Sep-10 01:29N 37°52' E 023°45'0 0.0
2017-Sep-10 00:59N 37°52' E 023°45'0 0.0
2017-Sep-10 00:29N 37°52' E 023°45'0 0.0
2017-Sep-09 23:59N 37°52' E 023°45'0 0.0
2017-Sep-09 23:29N 37°52' E 023°45'0 0.0
2017-Sep-09 22:59N 37°52' E 023°45'0 0.0
2017-Sep-09 22:29N 37°52' E 023°45'0 0.0
2017-Sep-09 21:59N 37°52' E 023°45'0 0.0
2017-Sep-09 21:29N 37°52' E 023°45'0 0.0
2017-Sep-09 20:59N 37°52' E 023°45'0 0.0
2017-Sep-09 20:26N 37°52' E 023°45'0 0.0
2017-Sep-09 19:59N 37°52' E 023°45'0 0.0
2017-Sep-09 19:29N 37°52' E 023°45'0 0.0
2017-Sep-09 18:59N 37°52' E 023°45'0 0.0
2017-Sep-09 18:29N 37°52' E 023°45'0 0.0
2017-Sep-09 17:59N 37°52' E 023°45'0 0.0
2017-Sep-09 17:29N 37°52' E 023°45'0 0.0
2017-Sep-09 16:59N 37°52' E 023°45'0 0.0
2017-Sep-09 16:29N 37°52' E 023°45'0 0.0
2017-Sep-09 15:59N 37°52' E 023°45'0 0.0
2017-Sep-09 15:26N 37°52' E 023°45'0 0.0
2017-Sep-09 14:47N 37°52' E 023°45'0 0.0
2017-Sep-09 14:29N 37°52' E 023°45'9 1.2
2017-Sep-09 07:06N 37°45' E 023°37'330.4
2017-Sep-09 07:00N 37°48' E 023°40'6 6.7
2017-Sep-09 06:10N 37°52' E 023°45'0 0.0
2017-Sep-09 01:10N 37°52' E 023°45'0 0.0
2017-Sep-08 21:28N 37°52' E 023°45'0 0.0
2017-Sep-08 20:58N 37°52' E 023°45'0 0.0
2017-Sep-08 19:43N 37°52' E 023°45'0 0.0
2017-Sep-08 19:28N 37°52' E 023°45'0 0.0
2017-Sep-08 17:58N 37°52' E 023°45'0 0.0
2017-Sep-08 16:58N 37°52' E 023°45'0 0.0
2017-Sep-08 16:16N 37°52' E 023°45'0 0.0
2017-Sep-08 15:16N 37°52' E 023°45'0 0.0
2017-Sep-08 14:40N 37°52' E 023°45'0 0.0
2017-Sep-08 14:28N 37°52' E 023°45'0 0.0
2017-Sep-08 13:46N 37°52' E 023°45'0 0.0
2017-Sep-08 13:22N 37°52' E 023°45'0 0.0
2017-Sep-08 09:34N 37°52' E 023°45'0 0.0
2017-Sep-08 09:25N 37°52' E 023°45'  

Dump ship's entire track history